createdAt,value
2022-12-27T00:01:03.766Z,3.95
2022-12-27T00:03:33.599Z,3.96
2022-12-27T00:06:07.021Z,3.85
2022-12-27T00:08:33.787Z,3.95
2022-12-27T00:11:09.219Z,3.97
2022-12-27T00:13:38.997Z,3.84
2022-12-27T00:16:08.247Z,3.77
2022-12-27T00:18:40.871Z,3.75
2022-12-27T00:21:32.100Z,3.71
2022-12-27T00:24:04.554Z,3.62
2022-12-27T00:26:33.414Z,3.59
2022-12-27T00:29:00.452Z,3.53
2022-12-27T00:31:31.720Z,3.55
2022-12-27T00:33:59.530Z,3.51
2022-12-27T00:36:28.831Z,3.56
2022-12-27T00:38:59.484Z,3.44
2022-12-27T00:41:27.108Z,3.32
2022-12-27T00:43:56.979Z,3.32
2022-12-27T00:46:23.784Z,3.30
2022-12-27T00:48:50.565Z,3.27
2022-12-27T00:51:19.992Z,3.32
2022-12-27T00:53:54.737Z,3.29
2022-12-27T00:56:25.207Z,3.22
2022-12-27T00:58:57.529Z,3.20
2022-12-27T01:01:27.745Z,3.13
2022-12-27T01:04:01.016Z,3.18
2022-12-27T01:06:38.389Z,3.05
2022-12-27T01:09:05.328Z,3.12
2022-12-27T01:11:32.894Z,3.03
2022-12-27T01:14:01.819Z,3.00
2022-12-27T01:16:31.064Z,3.05
2022-12-27T01:19:00.857Z,3.15
2022-12-27T01:21:45.863Z,3.13
2022-12-27T01:24:21.854Z,3.21
2022-12-27T01:26:54.917Z,3.25
2022-12-27T01:29:21.770Z,3.03
2022-12-27T01:31:50.252Z,3.00
2022-12-27T01:34:19.565Z,3.11
2022-12-27T01:36:46.561Z,2.93
2022-12-27T01:39:16.579Z,3.13
2022-12-27T01:42:14.023Z,3.01
2022-12-27T01:44:43.081Z,3.10
2022-12-27T01:47:20.647Z,2.91
2022-12-27T01:50:04.631Z,2.75
2022-12-27T01:52:56.757Z,2.94
2022-12-27T01:55:45.709Z,2.93
2022-12-27T01:58:32.167Z,2.73
2022-12-27T02:00:59.455Z,2.77
2022-12-27T02:03:33.159Z,2.73
2022-12-27T02:06:03.068Z,2.70
2022-12-27T02:08:44.250Z,2.72
2022-12-27T02:11:11.337Z,2.55
2022-12-27T02:13:41.589Z,2.83
2022-12-27T02:16:17.796Z,2.67
2022-12-27T02:18:45.507Z,2.58
2022-12-27T02:21:30.990Z,2.78
2022-12-27T02:24:28.555Z,2.50
2022-12-27T02:27:15.908Z,2.57
2022-12-27T02:29:49.441Z,2.56
2022-12-27T02:32:17.702Z,2.41
2022-12-27T02:34:57.400Z,2.32
2022-12-27T02:37:30.952Z,2.35
2022-12-27T02:40:18.970Z,2.40
2022-12-27T02:43:07.432Z,2.29
2022-12-27T02:46:01.518Z,2.40
2022-12-27T02:49:00.707Z,2.24
2022-12-27T02:51:56.856Z,2.34
2022-12-27T02:54:29.702Z,2.32
2022-12-27T02:57:10.878Z,2.32
2022-12-27T03:00:18.475Z,2.37
2022-12-27T03:03:24.062Z,2.55
2022-12-27T03:06:29.193Z,2.44
2022-12-27T03:08:57.566Z,2.42
2022-12-27T03:11:44.982Z,2.52
2022-12-27T03:14:51.275Z,2.58
2022-12-27T03:17:25.736Z,2.62
2022-12-27T03:20:13.769Z,2.52
2022-12-27T03:22:59.630Z,2.48
2022-12-27T03:25:28.168Z,2.36
2022-12-27T03:28:21.203Z,2.32
2022-12-27T03:31:09.239Z,2.41
2022-12-27T03:33:36.507Z,2.26
2022-12-27T03:36:31.147Z,2.42
2022-12-27T03:39:24.356Z,2.58
2022-12-27T03:42:16.235Z,2.71
2022-12-27T03:44:43.205Z,2.58
2022-12-27T03:47:13.808Z,2.53
2022-12-27T03:49:46.349Z,2.46
2022-12-27T03:52:34.948Z,2.56
2022-12-27T03:55:02.159Z,2.47
2022-12-27T03:57:29.072Z,2.42
2022-12-27T03:59:55.824Z,2.58
2022-12-27T04:02:23.102Z,2.50
2022-12-27T04:04:50.252Z,2.59
2022-12-27T04:07:17.392Z,2.38
2022-12-27T04:10:03.033Z,2.53
2022-12-27T04:12:48.498Z,2.64
2022-12-27T04:15:33.950Z,2.64
2022-12-27T04:18:19.615Z,2.70
2022-12-27T04:21:05.023Z,2.70
2022-12-27T04:23:50.432Z,2.60
2022-12-27T04:26:35.844Z,2.56
2022-12-27T04:29:21.163Z,2.51
2022-12-27T04:32:06.571Z,2.45
2022-12-27T04:34:42.858Z,2.49
2022-12-27T04:37:14.992Z,2.57
2022-12-27T04:40:03.083Z,2.57
2022-12-27T04:42:48.989Z,2.53
2022-12-27T04:45:34.546Z,2.35
2022-12-27T04:48:20.141Z,2.54
2022-12-27T04:51:05.719Z,2.58
2022-12-27T04:53:51.774Z,2.62
2022-12-27T04:56:18.462Z,2.48
2022-12-27T04:59:05.216Z,2.57
2022-12-27T05:01:53.657Z,2.53
2022-12-27T05:04:20.780Z,2.71
2022-12-27T05:06:47.694Z,2.74
2022-12-27T05:09:33.059Z,2.72
2022-12-27T05:12:19.926Z,2.71
2022-12-27T05:14:47.335Z,2.84
2022-12-27T05:17:14.137Z,2.73
2022-12-27T05:19:40.831Z,2.64
2022-12-27T05:22:26.251Z,2.70
2022-12-27T05:25:12.180Z,2.71
2022-12-27T05:27:38.891Z,2.72
2022-12-27T05:30:06.410Z,2.62
2022-12-27T05:32:33.182Z,2.59
2022-12-27T05:34:59.881Z,2.50
2022-12-27T05:37:27.112Z,2.42
2022-12-27T05:39:53.842Z,2.36
2022-12-27T05:42:20.582Z,2.33
2022-12-27T05:44:47.334Z,2.55
2022-12-27T05:47:14.166Z,2.47
2022-12-27T05:49:40.987Z,2.42
2022-12-27T05:52:07.680Z,2.44
2022-12-27T05:54:34.461Z,2.52
2022-12-27T05:57:01.212Z,2.45
2022-12-27T05:59:27.957Z,2.48
2022-12-27T06:01:54.818Z,2.54
2022-12-27T06:04:21.870Z,2.61
2022-12-27T06:06:48.983Z,2.54
2022-12-27T06:09:15.675Z,2.60
2022-12-27T06:11:42.485Z,2.44
2022-12-27T06:14:09.522Z,2.41
2022-12-27T06:16:47.973Z,2.54
2022-12-27T06:19:16.355Z,2.61
2022-12-27T06:21:54.287Z,2.52
2022-12-27T06:24:21.192Z,2.47
2022-12-27T06:26:47.888Z,2.44
2022-12-27T06:29:14.858Z,2.58
2022-12-27T06:31:41.764Z,2.71
2022-12-27T06:34:10.845Z,2.74
2022-12-27T06:36:37.600Z,2.65
2022-12-27T06:39:04.358Z,2.61
2022-12-27T06:41:34.446Z,2.59
2022-12-27T06:44:01.199Z,2.63
2022-12-27T06:46:28.248Z,2.75
2022-12-27T06:48:55.028Z,2.76
2022-12-27T06:51:22.056Z,2.76
2022-12-27T06:53:49.742Z,2.66
2022-12-27T06:56:19.204Z,2.64
2022-12-27T06:58:54.795Z,2.74
2022-12-27T07:01:24.010Z,2.72
2022-12-27T07:03:52.443Z,2.65
2022-12-27T07:06:19.918Z,2.71
2022-12-27T07:08:47.349Z,2.72
2022-12-27T07:11:35.614Z,2.76
2022-12-27T07:14:37.185Z,2.83
2022-12-27T07:17:01.944Z,2.69
2022-12-27T07:19:28.994Z,2.59
2022-12-27T07:21:58.177Z,2.70
2022-12-27T07:24:33.363Z,2.83
2022-12-27T07:27:01.881Z,2.81
2022-12-27T07:29:32.289Z,2.81
2022-12-27T07:32:10.661Z,2.75
2022-12-27T07:34:37.330Z,2.71
2022-12-27T07:37:09.147Z,2.85
2022-12-27T07:39:35.890Z,2.71
2022-12-27T07:42:19.294Z,2.77
2022-12-27T07:44:46.470Z,2.79
2022-12-27T07:47:13.394Z,2.88
2022-12-27T07:49:40.064Z,2.97
2022-12-27T07:52:06.724Z,3.06
2022-12-27T07:54:33.515Z,3.13
2022-12-27T07:57:00.257Z,3.15
2022-12-27T07:59:30.008Z,3.23
2022-12-27T08:02:06.192Z,3.25
2022-12-27T08:04:35.508Z,3.24
2022-12-27T08:07:10.368Z,3.03
2022-12-27T08:09:39.568Z,3.15
2022-12-27T08:12:07.539Z,3.20
2022-12-27T08:14:34.411Z,3.15
2022-12-27T08:17:33.992Z,3.06
2022-12-27T08:20:01.193Z,3.08
2022-12-27T08:22:28.337Z,3.19
2022-12-27T08:25:09.396Z,2.96
2022-12-27T08:27:39.755Z,2.95
2022-12-27T08:30:07.436Z,2.82
2022-12-27T08:32:34.435Z,2.90
2022-12-27T08:35:18.229Z,2.95
2022-12-27T08:37:47.870Z,2.87
2022-12-27T08:40:14.574Z,2.86
2022-12-27T08:42:41.420Z,2.94
2022-12-27T08:45:08.662Z,2.94
2022-12-27T08:47:35.778Z,3.00
2022-12-27T08:50:02.611Z,2.94
2022-12-27T08:52:29.577Z,2.91
2022-12-27T08:54:58.814Z,2.86
2022-12-27T08:57:25.624Z,2.94
2022-12-27T08:59:52.420Z,2.88
2022-12-27T09:02:19.329Z,2.96
2022-12-27T09:04:46.059Z,2.84
2022-12-27T09:07:12.809Z,2.88
2022-12-27T09:09:40.557Z,3.02
2022-12-27T09:12:09.227Z,2.97
2022-12-27T09:14:36.258Z,2.99
2022-12-27T09:17:03.204Z,2.99
2022-12-27T09:19:31.177Z,3.22
2022-12-27T09:21:58.057Z,3.25
2022-12-27T09:24:24.825Z,3.20
2022-12-27T09:26:51.712Z,3.22
2022-12-27T09:29:21.312Z,3.33
2022-12-27T09:31:48.050Z,3.34
2022-12-27T09:34:14.796Z,3.36
2022-12-27T09:36:41.810Z,3.34
2022-12-27T09:39:10.383Z,3.34
2022-12-27T09:44:55.805Z,3.22
2022-12-27T09:47:31.711Z,3.32
2022-12-27T09:50:03.598Z,3.35
2022-12-27T09:52:36.565Z,3.48
2022-12-27T09:55:21.464Z,3.32
2022-12-27T09:57:48.579Z,3.38
2022-12-27T10:00:34.367Z,3.34
2022-12-27T10:03:05.128Z,3.42
2022-12-27T10:05:34.490Z,3.39
2022-12-27T10:08:28.856Z,3.39
2022-12-27T10:11:38.784Z,3.42
2022-12-27T10:14:49.219Z,3.51
2022-12-27T10:17:26.789Z,3.41
2022-12-27T10:20:41.858Z,3.45
2022-12-27T10:23:16.246Z,3.47
2022-12-27T10:25:45.324Z,3.52
2022-12-27T10:28:23.110Z,3.57
2022-12-27T10:30:49.889Z,3.50
2022-12-27T10:33:21.164Z,3.49
2022-12-27T10:35:48.814Z,3.46
2022-12-27T10:38:15.555Z,3.44
2022-12-27T10:40:57.805Z,3.56
2022-12-27T10:43:40.332Z,3.64
2022-12-27T10:46:32.361Z,3.65
2022-12-27T10:49:24.260Z,3.65
2022-12-27T10:51:52.951Z,3.75
2022-12-27T10:54:22.576Z,3.70
2022-12-27T10:56:49.679Z,3.77
2022-12-27T10:59:27.293Z,3.71
2022-12-27T11:02:00.287Z,3.79
2022-12-27T11:04:28.923Z,3.81
2022-12-27T11:07:02.248Z,3.86
2022-12-27T11:09:36.957Z,3.93
2022-12-27T11:12:24.531Z,3.97
2022-12-27T11:14:59.310Z,4.01
2022-12-27T11:17:36.151Z,3.98
2022-12-27T11:20:17.529Z,3.99
2022-12-27T11:22:46.706Z,3.98
2022-12-27T11:25:14.504Z,4.02
2022-12-27T11:28:04.298Z,4.02
2022-12-27T11:30:38.158Z,4.04
2022-12-27T11:33:07.833Z,4.04
2022-12-27T11:35:46.462Z,4.02
2022-12-27T11:38:22.411Z,3.94
2022-12-27T11:40:59.053Z,3.95
2022-12-27T11:43:27.850Z,3.92
2022-12-27T11:45:55.920Z,3.94
2022-12-27T11:48:30.370Z,3.89
2022-12-27T11:50:57.092Z,3.83
2022-12-27T11:54:11.578Z,3.82
2022-12-27T11:56:41.394Z,3.84
2022-12-27T11:59:36.522Z,3.87
2022-12-27T12:02:35.822Z,3.87
2022-12-27T12:05:32.650Z,3.86
2022-12-27T12:08:11.408Z,3.86
2022-12-27T12:10:49.292Z,3.88
2022-12-27T12:13:38.677Z,3.85
2022-12-27T12:16:36.557Z,3.85
2022-12-27T12:19:11.130Z,3.90
2022-12-27T12:21:50.948Z,3.88
2022-12-27T12:24:43.614Z,3.92
2022-12-27T12:27:22.481Z,3.99
2022-12-27T12:30:08.980Z,3.94
2022-12-27T12:33:00.485Z,3.93
2022-12-27T12:36:11.277Z,3.93
2022-12-27T12:38:44.487Z,3.88
2022-12-27T12:41:43.787Z,3.89
2022-12-27T12:44:37.963Z,3.92
2022-12-27T12:47:37.789Z,3.91
2022-12-27T12:50:26.830Z,3.97
2022-12-27T12:53:12.324Z,3.98
2022-12-27T12:55:48.576Z,3.99
2022-12-27T12:58:41.843Z,3.94
2022-12-27T13:01:34.419Z,3.92
2022-12-27T13:04:27.515Z,3.97
2022-12-27T13:07:12.188Z,3.97
2022-12-27T13:10:12.850Z,4.03
2022-12-27T13:13:10.660Z,4.10
2022-12-27T13:15:59.052Z,4.11
2022-12-27T13:18:31.898Z,4.12
2022-12-27T13:21:16.892Z,4.06
2022-12-27T13:23:53.964Z,4.04
2022-12-27T13:26:43.729Z,4.07
2022-12-27T13:29:32.331Z,4.01
2022-12-27T13:32:11.270Z,4.04
2022-12-27T13:34:53.197Z,4.07
2022-12-27T13:37:44.847Z,4.00
2022-12-27T13:40:46.325Z,3.97
2022-12-27T13:43:43.343Z,3.94
2022-12-27T13:46:19.383Z,3.98
2022-12-27T13:49:07.940Z,4.07
2022-12-27T13:51:56.311Z,4.00
2022-12-27T13:54:50.545Z,3.98
2022-12-27T13:57:26.897Z,4.02
2022-12-27T14:00:02.551Z,4.01
2022-12-27T14:02:57.836Z,4.01
2022-12-27T14:06:02.332Z,3.96
2022-12-27T14:08:56.675Z,3.92
2022-12-27T14:11:47.009Z,3.90
2022-12-27T14:14:16.273Z,3.83
2022-12-27T14:16:59.436Z,3.79
2022-12-27T14:19:44.047Z,3.74
2022-12-27T14:22:29.109Z,3.71
2022-12-27T14:25:11.267Z,3.75
2022-12-27T14:28:12.323Z,3.75
2022-12-27T14:31:07.173Z,3.67
2022-12-27T14:33:43.077Z,3.70
2022-12-27T14:36:44.270Z,3.67
2022-12-27T14:39:29.569Z,3.64
2022-12-27T14:42:34.527Z,3.67
2022-12-27T14:45:28.133Z,3.76
2022-12-27T14:48:08.929Z,3.76
2022-12-27T14:50:54.400Z,3.78
2022-12-27T14:53:51.364Z,3.77
2022-12-27T14:56:33.920Z,3.76
2022-12-27T14:59:31.849Z,3.81
2022-12-27T15:02:34.133Z,3.85
2022-12-27T15:05:36.392Z,3.85
2022-12-27T15:08:28.077Z,3.93
2022-12-27T15:11:05.521Z,4.01
2022-12-27T15:13:58.813Z,3.96
2022-12-27T15:16:43.962Z,3.97
2022-12-27T15:19:22.901Z,4.01
2022-12-27T15:22:01.365Z,3.95
2022-12-27T15:24:50.221Z,3.91
2022-12-27T15:27:25.150Z,3.83
2022-12-27T15:30:46.467Z,3.74
2022-12-27T15:33:38.020Z,3.65
2022-12-27T15:36:14.363Z,3.61
2022-12-27T15:38:52.651Z,3.57
2022-12-27T15:41:33.153Z,3.55
2022-12-27T15:44:17.575Z,3.48
2022-12-27T15:47:17.892Z,3.43
2022-12-27T15:50:22.913Z,3.40
2022-12-27T15:53:16.731Z,3.42
2022-12-27T15:55:56.509Z,3.41
2022-12-27T15:58:24.464Z,3.38
2022-12-27T16:01:13.196Z,3.36
2022-12-27T16:03:40.576Z,3.23
2022-12-27T16:06:09.611Z,3.17
2022-12-27T16:08:41.042Z,3.10
2022-12-27T16:11:10.403Z,3.08
2022-12-27T16:13:43.463Z,3.00
2022-12-27T16:16:36.808Z,2.98
2022-12-27T16:19:14.956Z,2.99
2022-12-27T16:21:45.171Z,2.99
2022-12-27T16:24:19.621Z,2.98
2022-12-27T16:27:05.014Z,3.02
2022-12-27T16:29:42.174Z,3.09
2022-12-27T16:32:26.863Z,3.03
2022-12-27T16:34:55.728Z,3.07
2022-12-27T16:37:29.440Z,3.13
2022-12-27T16:40:14.320Z,3.06
2022-12-27T16:42:53.065Z,3.17
2022-12-27T16:45:32.113Z,3.14
2022-12-27T16:48:13.959Z,3.14
2022-12-27T16:51:41.903Z,3.10
2022-12-27T16:54:36.344Z,3.10
2022-12-27T16:57:25.572Z,2.95
2022-12-27T17:00:08.769Z,3.05
2022-12-27T17:02:42.089Z,3.06
2022-12-27T17:05:15.192Z,3.03
2022-12-27T17:07:53.042Z,3.05
2022-12-27T17:10:32.482Z,3.04
2022-12-27T17:13:05.282Z,3.02
2022-12-27T17:15:32.456Z,3.02
2022-12-27T17:18:21.179Z,3.03
2022-12-27T17:21:03.809Z,3.10
2022-12-27T17:23:31.041Z,3.12
2022-12-27T17:26:23.193Z,3.12
2022-12-27T17:29:02.560Z,3.08
2022-12-27T17:31:51.633Z,3.12
2022-12-27T17:35:03.432Z,3.13
2022-12-27T17:38:01.013Z,3.04
2022-12-27T17:40:53.377Z,3.06
2022-12-27T17:44:01.007Z,3.09
2022-12-27T17:46:38.921Z,2.93
2022-12-27T17:49:14.079Z,2.99
2022-12-27T17:52:02.782Z,3.03
2022-12-27T17:54:48.752Z,3.02
2022-12-27T17:57:36.730Z,2.97
2022-12-27T18:00:06.499Z,3.02
2022-12-27T18:02:39.711Z,2.98
2022-12-27T18:05:12.894Z,2.99
2022-12-27T18:07:39.831Z,3.00
2022-12-27T18:10:23.138Z,2.97
2022-12-27T18:12:55.355Z,2.92
2022-12-27T18:15:24.487Z,2.89
2022-12-27T18:17:56.166Z,2.81
2022-12-27T18:20:26.238Z,2.79
2022-12-27T18:23:02.253Z,2.72
2022-12-27T18:25:38.406Z,2.75
2022-12-27T18:29:30.691Z,2.69
2022-12-27T18:32:09.378Z,2.59
2022-12-27T18:34:45.897Z,2.66
2022-12-27T18:37:21.268Z,2.69
2022-12-27T18:39:58.076Z,2.71
2022-12-27T18:42:31.677Z,2.71
2022-12-27T18:45:03.384Z,2.74
2022-12-27T18:47:33.626Z,2.75
2022-12-27T18:50:16.243Z,2.75
2022-12-27T18:52:54.728Z,2.73
2022-12-27T18:55:27.108Z,2.74
2022-12-27T18:58:20.815Z,2.73
2022-12-27T19:00:53.567Z,2.72
2022-12-27T19:03:21.087Z,2.70
2022-12-27T19:09:35.474Z,2.68
2022-12-27T19:13:02.674Z,2.80
2022-12-27T19:15:47.147Z,2.69
2022-12-27T19:18:25.937Z,2.72
2022-12-27T19:21:05.193Z,2.65
2022-12-27T19:23:45.491Z,2.56
2022-12-27T19:26:25.693Z,2.57
2022-12-27T19:29:09.255Z,2.55
2022-12-27T19:31:37.197Z,2.57
2022-12-27T19:34:10.577Z,2.56
2022-12-27T19:36:39.355Z,2.53
2022-12-27T19:39:18.697Z,2.47
2022-12-27T19:41:46.623Z,2.46
2022-12-27T19:44:13.670Z,2.47
2022-12-27T19:46:40.580Z,2.47
2022-12-27T19:49:40.131Z,2.41
2022-12-27T19:51:56.426Z,2.44
2022-12-27T19:54:25.028Z,2.51
2022-12-27T19:56:51.960Z,2.49
2022-12-27T19:59:26.913Z,2.53
2022-12-27T20:01:53.890Z,2.54
2022-12-27T20:04:21.012Z,2.68
2022-12-27T20:06:49.004Z,2.61
2022-12-27T20:12:01.167Z,2.58
2022-12-27T20:14:38.200Z,2.53
2022-12-27T20:17:15.459Z,2.54
2022-12-27T20:22:51.109Z,2.49
2022-12-27T20:26:12.906Z,2.49
2022-12-27T20:32:22.205Z,2.45
2022-12-27T20:34:49.030Z,2.47
2022-12-27T20:37:21.163Z,2.46
2022-12-27T20:39:50.988Z,2.47
2022-12-27T20:42:31.232Z,2.53
2022-12-27T20:45:02.542Z,2.54
2022-12-27T20:52:18.725Z,2.54
2022-12-27T20:58:44.038Z,2.59
2022-12-27T21:02:13.786Z,2.60
2022-12-27T21:16:10.224Z,2.66
2022-12-27T21:34:34.563Z,2.83
2022-12-27T22:01:27.099Z,3.02
2022-12-27T22:08:47.731Z,3.11
2022-12-27T22:12:44.305Z,3.07
2022-12-27T22:23:58.887Z,3.19
2022-12-27T22:27:23.146Z,3.14
2022-12-27T22:31:38.738Z,3.29
2022-12-27T22:36:00.628Z,3.18
2022-12-27T22:38:31.557Z,3.19
2022-12-27T22:42:49.385Z,3.21
2022-12-27T22:45:19.176Z,3.14
2022-12-27T22:47:49.308Z,3.15
2022-12-27T22:50:27.963Z,3.13
2022-12-27T22:53:07.382Z,3.16
2022-12-27T22:55:57.084Z,3.13
2022-12-27T22:58:34.259Z,3.12
2022-12-27T23:01:43.137Z,3.08
2022-12-27T23:04:44.717Z,3.04
2022-12-27T23:08:04.547Z,3.10
2022-12-27T23:10:35.206Z,3.09
2022-12-27T23:13:29.582Z,3.02
2022-12-27T23:17:00.220Z,2.96
2022-12-27T23:26:57.089Z,3.01
2022-12-27T23:46:34.417Z,2.85
2022-12-27T23:49:58.204Z,2.90
2022-12-27T23:59:59.634Z,2.99
